createdAt,value
2023-03-23T15:58:44.225Z,4.03
2023-03-23T15:59:47.682Z,5.28
2023-03-23T16:00:52.168Z,3.55
2023-03-23T16:01:54.865Z,2.78
2023-03-23T16:03:01.405Z,7.85
2023-03-23T16:04:15.140Z,7.82
2023-03-23T16:05:17.655Z,4.07
2023-03-23T16:06:25.174Z,3.85
2023-03-23T16:07:28.281Z,5.28
2023-03-23T16:08:30.784Z,4.60
2023-03-23T16:09:33.163Z,2.10
2023-03-23T16:10:35.670Z,1.95
2023-03-23T16:11:38.297Z,4.35
2023-03-23T16:12:40.744Z,2.35
2023-03-23T16:13:43.443Z,2.63
2023-03-23T16:14:46.597Z,2.05
2023-03-23T16:15:49.521Z,1.98
2023-03-23T16:16:52.899Z,2.20
2023-03-23T16:17:55.787Z,3.03
2023-03-23T16:18:58.788Z,21.92
2023-03-23T16:20:01.581Z,38.65
2023-03-23T16:21:04.304Z,52.60
2023-03-23T16:22:06.782Z,55.92
2023-03-23T16:23:09.154Z,30.90
2023-03-23T16:24:12.028Z,18.15
2023-03-23T16:25:15.387Z,15.57
2023-03-23T16:26:18.157Z,15.57
2023-03-23T16:27:21.512Z,16.35
2023-03-23T16:28:24.026Z,16.73
2023-03-23T16:29:40.615Z,14.63
2023-03-23T16:30:49.062Z,10.07
2023-03-23T16:31:51.648Z,9.35
2023-03-23T16:32:57.814Z,9.57
2023-03-23T16:34:00.934Z,8.40
2023-03-23T16:35:03.538Z,8.10
2023-03-23T16:36:06.516Z,7.30
2023-03-23T16:37:11.877Z,11.25
2023-03-23T16:38:16.367Z,5.10
2023-03-23T16:39:19.087Z,5.40
2023-03-23T16:40:23.202Z,4.82
2023-03-23T16:41:25.924Z,10.77
2023-03-23T16:42:28.563Z,87.07
2023-03-23T16:43:30.905Z,122.57
2023-03-23T16:44:33.246Z,64.13
2023-03-23T16:45:35.858Z,55.08
2023-03-23T16:46:38.328Z,38.38
2023-03-23T16:47:41.879Z,28.85
2023-03-23T16:48:44.378Z,23.67
2023-03-23T16:49:46.849Z,23.73
2023-03-23T16:50:49.561Z,23.98
2023-03-23T16:51:52.104Z,24.50
2023-03-23T16:52:54.604Z,22.25
2023-03-23T16:53:57.773Z,16.40
2023-03-23T16:55:00.849Z,13.45
2023-03-23T16:56:04.116Z,14.85
2023-03-23T16:57:06.858Z,12.32
2023-03-23T16:58:17.042Z,14.07
2023-03-23T16:59:20.401Z,11.18
2023-03-23T17:00:23.608Z,14.70
2023-03-23T17:01:26.174Z,10.52
2023-03-23T17:02:28.950Z,8.50
2023-03-23T17:03:34.090Z,15.90
2023-03-23T17:04:37.228Z,8.57
2023-03-23T17:05:39.583Z,11.13
2023-03-23T17:06:43.967Z,18.25
2023-03-23T17:07:47.381Z,15.38
2023-03-23T17:08:50.062Z,19.85
2023-03-23T17:09:52.612Z,20.02
2023-03-23T17:10:55.086Z,31.25
2023-03-23T17:11:57.597Z,32.35
2023-03-23T17:13:00.653Z,33.80
2023-03-23T17:14:03.725Z,33.50
2023-03-23T17:15:07.827Z,29.92
2023-03-23T17:16:10.418Z,17.25
2023-03-23T17:17:13.324Z,15.07
2023-03-23T17:18:16.481Z,23.33
2023-03-23T17:19:19.286Z,13.52
2023-03-23T17:20:22.009Z,18.02
2023-03-23T17:21:26.095Z,12.57
2023-03-23T17:22:28.820Z,15.75
2023-03-23T17:23:31.307Z,11.70
2023-03-23T17:24:33.678Z,9.68
2023-03-23T17:25:36.157Z,15.43
2023-03-23T17:26:38.575Z,13.10
2023-03-23T17:27:42.633Z,6.55
2023-03-23T17:28:45.463Z,6.10
2023-03-23T17:29:48.257Z,8.27
2023-03-23T17:30:52.875Z,7.13
2023-03-23T17:31:55.585Z,6.70
2023-03-23T17:32:58.246Z,13.60
2023-03-23T17:34:00.856Z,7.90
2023-03-23T17:35:05.450Z,7.28
2023-03-23T17:36:08.449Z,3.55
2023-03-23T17:37:11.212Z,4.75
2023-03-23T17:38:13.939Z,7.03
2023-03-23T17:39:16.564Z,6.63
2023-03-23T17:40:19.012Z,4.88
2023-03-23T17:41:21.521Z,12.95
2023-03-23T17:42:24.180Z,14.18
2023-03-23T17:43:27.106Z,7.95
2023-03-23T17:44:30.113Z,10.80
2023-03-23T17:45:32.485Z,16.85
2023-03-23T17:46:34.988Z,18.08
2023-03-23T17:47:37.937Z,18.45
2023-03-23T17:48:40.595Z,90.18
2023-03-23T17:49:42.966Z,106.70
2023-03-23T17:50:49.261Z,158.88
2023-03-23T17:51:51.574Z,188.10
2023-03-23T17:52:53.907Z,162.25
2023-03-23T17:53:56.226Z,63.65
2023-03-23T17:54:59.012Z,52.65
2023-03-23T17:56:02.150Z,37.83
2023-03-23T17:57:04.975Z,32.47
2023-03-23T17:58:07.314Z,25.13
2023-03-23T17:59:09.690Z,23.08
2023-03-23T18:00:12.429Z,20.92
2023-03-23T18:01:14.857Z,16.50
2023-03-23T18:02:18.578Z,18.17
2023-03-23T18:03:22.249Z,13.95
2023-03-23T18:04:26.893Z,12.07
2023-03-23T18:05:29.223Z,13.95
2023-03-23T18:06:32.682Z,13.15
2023-03-23T18:07:35.598Z,9.88
2023-03-23T18:08:38.767Z,10.20
2023-03-23T18:09:41.572Z,11.13
2023-03-23T18:10:44.823Z,11.75
2023-03-23T18:11:47.148Z,10.77
2023-03-23T18:12:51.433Z,11.90
2023-03-23T18:13:53.929Z,9.68
2023-03-23T18:14:57.813Z,12.10
2023-03-23T18:16:01.385Z,10.82
2023-03-23T18:17:04.160Z,9.23
2023-03-23T18:18:06.598Z,11.77
2023-03-23T18:19:09.615Z,9.45
2023-03-23T18:20:11.943Z,6.53
2023-03-23T18:21:14.340Z,7.85
2023-03-23T18:22:16.749Z,8.38
2023-03-23T18:23:19.237Z,7.25
2023-03-23T18:24:21.767Z,5.32
2023-03-23T18:25:24.947Z,6.03
2023-03-23T18:26:28.757Z,6.03
2023-03-23T18:27:31.567Z,4.18
2023-03-23T18:28:34.619Z,5.57
2023-03-23T18:29:36.955Z,7.63
2023-03-23T18:30:39.358Z,5.90
2023-03-23T18:31:43.052Z,5.18
2023-03-23T18:32:45.472Z,6.75
2023-03-23T18:33:49.863Z,6.82
2023-03-23T18:34:52.266Z,104.55
2023-03-23T18:35:59.662Z,106.10
2023-03-23T18:37:02.578Z,79.18
2023-03-23T18:38:04.943Z,41.05
2023-03-23T18:39:10.533Z,26.52
2023-03-23T18:40:14.295Z,32.50
2023-03-23T18:41:18.124Z,167.77
2023-03-23T18:42:21.349Z,90.78
2023-03-23T18:43:24.461Z,39.53
2023-03-23T18:44:26.844Z,29.17
2023-03-23T18:45:29.418Z,26.70
2023-03-23T18:46:31.870Z,59.22
2023-03-23T18:47:34.292Z,42.83
2023-03-23T18:48:37.572Z,26.35
2023-03-23T18:49:39.979Z,31.73
2023-03-23T18:50:49.726Z,69.97
2023-03-23T18:51:51.977Z,200.57
2023-03-23T18:52:54.742Z,129.65
2023-03-23T18:53:57.245Z,125.78
2023-03-23T18:55:00.484Z,76.13
2023-03-23T18:56:09.844Z,38.33
2023-03-23T18:57:12.740Z,31.40
2023-03-23T18:58:16.966Z,29.45
2023-03-23T18:59:19.536Z,36.75
2023-03-23T19:00:21.990Z,41.78
2023-03-23T19:01:24.368Z,33.53
2023-03-23T19:02:26.986Z,35.78
2023-03-23T19:03:29.601Z,46.92
2023-03-23T19:04:32.959Z,50.75
2023-03-23T19:05:38.652Z,37.33
2023-03-23T19:06:41.353Z,36.95
2023-03-23T19:07:43.801Z,32.28
2023-03-23T19:08:47.369Z,26.63
2023-03-23T19:09:49.867Z,34.22
2023-03-23T19:10:58.437Z,24.52
2023-03-23T19:12:01.232Z,28.90
2023-03-23T19:13:03.599Z,27.05
2023-03-23T19:14:09.053Z,25.27
2023-03-23T19:15:11.477Z,32.28
2023-03-23T19:16:14.128Z,29.70
2023-03-23T19:17:16.586Z,32.35
2023-03-23T19:18:19.091Z,27.20
2023-03-23T19:19:21.797Z,25.30
2023-03-23T19:20:54.845Z,26.40
2023-03-23T19:21:47.992Z,24.42
2023-03-23T19:22:50.392Z,21.73
2023-03-23T19:23:53.290Z,21.63
2023-03-23T19:24:55.604Z,23.55
2023-03-23T19:25:58.462Z,17.55
2023-03-23T19:27:01.724Z,18.88
2023-03-23T19:30:17.880Z,15.82
2023-03-23T19:31:23.574Z,14.07
2023-03-23T19:32:26.019Z,16.63
2023-03-23T19:33:28.672Z,12.73
2023-03-23T19:34:31.861Z,11.45
2023-03-23T19:35:34.337Z,12.55
2023-03-23T19:36:37.315Z,13.05
2023-03-23T19:37:39.732Z,12.25
2023-03-23T19:38:42.060Z,11.98
2023-03-23T19:39:44.530Z,12.18
2023-03-23T19:40:55.660Z,14.10
2023-03-23T19:43:01.256Z,10.70
2023-03-23T19:44:04.780Z,12.35
2023-03-23T19:45:08.900Z,8.25
2023-03-23T19:46:11.794Z,12.23
2023-03-23T19:47:14.543Z,11.98
2023-03-23T19:48:17.816Z,10.25
2023-03-23T19:49:20.943Z,12.82
2023-03-23T19:50:23.282Z,10.55
2023-03-23T19:51:27.577Z,19.35
2023-03-23T19:52:30.818Z,9.93
2023-03-23T19:53:34.180Z,11.00
2023-03-23T19:54:36.477Z,13.80
2023-03-23T19:55:38.849Z,8.98
2023-03-23T19:56:43.054Z,8.23
2023-03-23T19:57:45.430Z,10.27
2023-03-23T19:58:48.240Z,9.15
2023-03-23T19:59:50.594Z,8.73
2023-03-23T20:00:53.700Z,7.45
2023-03-23T20:01:56.069Z,7.13
2023-03-23T20:02:58.961Z,11.50
2023-03-23T20:04:04.692Z,12.18
2023-03-23T20:05:08.591Z,10.38
2023-03-23T20:06:14.866Z,12.48
2023-03-23T20:07:17.427Z,12.65
2023-03-23T20:08:19.785Z,11.57
2023-03-23T20:09:22.108Z,11.55
2023-03-23T20:10:24.436Z,11.07
2023-03-23T20:11:26.757Z,12.98
2023-03-23T20:12:29.161Z,18.15
2023-03-23T20:13:32.816Z,12.82
2023-03-23T20:14:35.733Z,14.52
2023-03-23T20:15:39.308Z,13.38
2023-03-23T20:16:41.949Z,14.75
2023-03-23T20:17:44.462Z,13.90
2023-03-23T20:18:47.302Z,14.80
2023-03-23T20:19:49.704Z,14.70
2023-03-23T20:21:03.828Z,13.80
2023-03-23T20:22:06.636Z,13.65
2023-03-23T20:23:09.160Z,17.38
2023-03-23T20:24:11.979Z,19.25
2023-03-23T20:25:14.514Z,14.63
2023-03-23T20:26:20.556Z,16.55
2023-03-23T20:27:23.280Z,17.40
2023-03-23T20:28:26.185Z,18.95
2023-03-23T20:29:31.589Z,16.55
2023-03-23T20:30:34.102Z,17.60
2023-03-23T20:31:39.737Z,16.00
2023-03-23T20:32:42.151Z,12.90
2023-03-23T20:33:45.023Z,16.52
2023-03-23T20:34:49.171Z,16.73
2023-03-23T20:35:52.066Z,14.77
2023-03-23T20:36:55.798Z,17.20
2023-03-23T20:37:58.257Z,17.63
2023-03-23T20:39:01.251Z,15.15
2023-03-23T20:40:07.044Z,18.33
2023-03-23T20:41:12.169Z,10.10
2023-03-23T20:42:15.258Z,9.80
2023-03-23T20:43:17.558Z,6.72
2023-03-23T20:44:23.057Z,5.40
2023-03-23T20:45:25.437Z,5.85
2023-03-23T20:46:27.915Z,6.53
2023-03-23T20:47:31.330Z,8.90
2023-03-23T20:48:34.940Z,6.72
2023-03-23T20:49:38.489Z,5.43
2023-03-23T20:50:41.413Z,10.75
2023-03-23T20:51:44.917Z,4.60
2023-03-23T20:52:47.946Z,5.20
2023-03-23T20:53:50.291Z,10.43
2023-03-23T20:54:53.763Z,7.43
2023-03-23T20:55:58.558Z,8.07
2023-03-23T20:57:00.964Z,4.63
2023-03-23T20:58:03.361Z,4.70
2023-03-23T20:59:05.749Z,5.22
2023-03-23T21:00:09.336Z,4.07
2023-03-23T21:01:12.016Z,3.90
2023-03-23T21:02:16.458Z,4.47
2023-03-23T21:03:18.955Z,4.32
2023-03-23T21:04:27.359Z,3.90
2023-03-23T21:05:30.075Z,3.70
2023-03-23T21:06:33.955Z,4.07
2023-03-23T21:07:36.335Z,6.93
2023-03-23T21:08:40.662Z,8.25
2023-03-23T21:09:43.512Z,6.55
2023-03-23T21:10:47.036Z,5.38
2023-03-23T21:11:49.408Z,5.60
2023-03-23T21:12:51.692Z,9.55
2023-03-23T21:13:54.209Z,3.80
2023-03-23T21:14:56.836Z,4.72
2023-03-23T21:16:02.307Z,15.52
2023-03-23T21:17:06.773Z,5.20
2023-03-23T21:18:10.754Z,9.05
2023-03-23T21:19:13.562Z,4.68
2023-03-23T21:20:16.707Z,4.45
2023-03-23T21:21:19.024Z,6.05
2023-03-23T21:22:21.454Z,3.30
2023-03-23T21:23:26.426Z,6.55
2023-03-23T21:24:31.196Z,5.10
2023-03-23T21:25:35.978Z,5.85
2023-03-23T21:26:39.636Z,3.78
2023-03-23T21:27:42.186Z,2.90
2023-03-23T21:28:45.577Z,2.83
2023-03-23T21:29:48.683Z,4.32
2023-03-23T21:30:52.431Z,4.03
2023-03-23T21:32:07.844Z,2.78
2023-03-23T21:33:12.184Z,3.85
2023-03-23T21:34:14.489Z,5.47
2023-03-23T21:35:16.942Z,3.58
2023-03-23T21:36:19.371Z,2.55
2023-03-23T21:37:21.678Z,3.90
2023-03-23T21:38:26.626Z,4.28
2023-03-23T21:39:29.071Z,2.80
2023-03-23T21:40:31.756Z,5.88
2023-03-23T21:41:42.537Z,3.35
2023-03-23T21:42:46.657Z,3.38
2023-03-23T21:43:50.076Z,4.18
2023-03-23T21:44:53.691Z,6.25
2023-03-23T21:45:59.046Z,3.15
2023-03-23T21:47:02.015Z,3.38
2023-03-23T21:48:06.290Z,3.03
2023-03-23T21:49:13.940Z,6.30
2023-03-23T21:50:17.672Z,2.67
2023-03-23T21:51:23.395Z,3.38
2023-03-23T21:52:26.386Z,3.95
2023-03-23T21:53:30.864Z,5.10
2023-03-23T21:54:34.240Z,2.50
2023-03-23T21:55:36.733Z,2.85
2023-03-23T21:56:39.696Z,3.35
2023-03-23T21:57:42.500Z,3.63
2023-03-23T21:58:45.018Z,2.72
2023-03-23T21:59:47.538Z,2.75
2023-03-23T22:00:53.850Z,2.95
2023-03-23T22:01:58.071Z,3.20
2023-03-23T22:03:04.670Z,5.25
2023-03-23T22:04:07.775Z,3.83
2023-03-23T22:05:10.669Z,3.90
2023-03-23T22:06:20.772Z,3.05
2023-03-23T22:07:23.960Z,4.85
2023-03-23T22:08:29.069Z,3.42
2023-03-23T22:09:31.604Z,3.10
2023-03-23T22:10:33.982Z,2.63
2023-03-23T22:11:38.031Z,3.65
2023-03-23T22:12:40.853Z,2.67
2023-03-23T22:13:43.428Z,2.67
2023-03-23T22:14:46.139Z,2.95
2023-03-23T22:15:50.576Z,3.88
2023-03-23T22:16:53.052Z,2.55
2023-03-23T22:17:55.998Z,8.43
2023-03-23T22:19:00.317Z,2.55
2023-03-23T22:20:05.590Z,3.45
2023-03-23T22:21:08.256Z,3.20
2023-03-23T22:22:10.778Z,2.58
2023-03-23T22:23:13.129Z,2.20
2023-03-23T22:24:15.975Z,3.60
2023-03-23T22:25:18.489Z,2.20
2023-03-23T22:26:21.234Z,2.90
2023-03-23T22:27:23.757Z,2.35
2023-03-23T22:28:27.666Z,2.63
2023-03-23T22:29:30.081Z,3.55
2023-03-23T22:30:33.466Z,2.20
2023-03-23T22:31:39.670Z,2.28
2023-03-23T22:32:42.601Z,3.40
2023-03-23T22:33:46.226Z,3.42
2023-03-23T22:34:49.163Z,4.25
2023-03-23T22:35:51.934Z,2.35
2023-03-23T22:36:56.020Z,2.83
2023-03-23T22:37:58.718Z,2.15
2023-03-23T22:39:01.994Z,2.28
2023-03-23T22:40:10.289Z,2.53
2023-03-23T22:41:18.361Z,2.83
2023-03-23T22:42:20.874Z,3.80
2023-03-23T22:43:24.223Z,2.53
2023-03-23T22:44:27.098Z,2.30
2023-03-23T22:45:30.129Z,3.30
2023-03-23T22:46:32.730Z,2.38
2023-03-23T22:47:36.118Z,4.20
2023-03-23T22:48:38.606Z,2.65
2023-03-23T22:49:41.038Z,3.20
2023-03-23T22:50:44.915Z,1.73
2023-03-23T22:51:47.787Z,2.50
2023-03-23T22:52:50.283Z,2.80
2023-03-23T22:53:52.749Z,1.80
2023-03-23T22:54:55.093Z,1.85
2023-03-23T22:55:58.207Z,1.95
2023-03-23T22:57:01.032Z,2.95
2023-03-23T22:58:03.553Z,3.38
2023-03-23T22:59:07.187Z,1.58
2023-03-23T23:00:14.604Z,3.05
2023-03-23T23:01:21.818Z,4.63
2023-03-23T23:02:24.341Z,2.10
2023-03-23T23:03:27.933Z,1.85
2023-03-23T23:04:31.060Z,2.25
2023-03-23T23:05:42.749Z,2.38
2023-03-23T23:06:45.230Z,3.95
2023-03-23T23:07:47.722Z,2.78
2023-03-23T23:08:51.752Z,2.38
2023-03-23T23:09:54.304Z,2.00
2023-03-23T23:10:59.249Z,2.47
2023-03-23T23:12:01.677Z,2.72
2023-03-23T23:13:04.083Z,2.58
2023-03-23T23:14:06.514Z,4.00
2023-03-23T23:15:12.842Z,1.88
2023-03-23T23:16:19.055Z,2.42
2023-03-23T23:17:21.434Z,1.77
2023-03-23T23:18:25.333Z,3.95
2023-03-23T23:19:27.855Z,2.65
2023-03-23T23:20:33.893Z,2.40
2023-03-23T23:21:36.276Z,2.72
2023-03-23T23:22:40.610Z,3.80
2023-03-23T23:23:44.693Z,3.15
2023-03-23T23:24:47.287Z,2.75
2023-03-23T23:25:50.734Z,3.83
2023-03-23T23:26:53.615Z,2.13
2023-03-23T23:27:58.318Z,3.15
2023-03-23T23:29:02.703Z,3.60
2023-03-23T23:30:06.622Z,3.55
2023-03-23T23:31:27.004Z,2.90
2023-03-23T23:32:32.326Z,2.63
2023-03-23T23:33:34.741Z,2.38
2023-03-23T23:34:37.100Z,1.70
2023-03-23T23:35:40.638Z,3.85
2023-03-23T23:36:43.180Z,4.20
2023-03-23T23:37:46.396Z,2.20
2023-03-23T23:38:49.214Z,2.50
2023-03-23T23:39:51.712Z,2.65
2023-03-23T23:40:54.187Z,4.60
2023-03-23T23:41:57.067Z,2.15
2023-03-23T23:42:59.662Z,1.58
2023-03-23T23:44:02.571Z,2.58
2023-03-23T23:45:05.841Z,2.08
2023-03-23T23:46:08.377Z,2.90
2023-03-23T23:47:11.494Z,1.70
2023-03-23T23:48:13.908Z,1.98
2023-03-23T23:49:16.335Z,3.15
2023-03-23T23:50:18.910Z,2.05
2023-03-23T23:51:21.587Z,2.45
2023-03-23T23:52:24.416Z,3.40
2023-03-23T23:53:26.943Z,3.95
2023-03-23T23:54:29.819Z,2.25
2023-03-23T23:55:33.213Z,2.67
2023-03-23T23:56:36.058Z,2.92
2023-03-23T23:57:38.890Z,1.73
2023-03-23T23:58:41.426Z,2.22
2023-03-23T23:59:43.883Z,3.13
